This is the latest recevied weather packets stored in our database for station/object OE-11053. If no packets are shown the sender has not sent any weather packets the latest 10 day(s).
| Time | Temp. | Humidity | Pressure | Rain* | Wind** | Luminosity | Snow |
|---|---|---|---|---|---|---|---|
| 1787922694 | 30.56° C | 47% | 1008.5 hPa | 0 mm | - | 281 W/m² | - |
| 1787922322 | 31.11° C | 45% | 1008.1 hPa | 0 mm | - | 326 W/m² | - |
| 1787921723 | 31.67° C | 42% | 1007 hPa | 0 mm | - | 639 W/m² | - |
| 1787920895 | 31.67° C | 44% | 1007.1 hPa | 0 mm | - | 716 W/m² | - |
| 1787920523 | 31.67° C | 43% | 1007.1 hPa | 0 mm | - | 691 W/m² | - |
| 1787919923 | 31.11° C | 43% | 1007.2 hPa | 0 mm | - | 454 W/m² | - |
| 1787919095 | 31.11° C | 44% | 1007.2 hPa | 0 mm | - | 486 W/m² | - |
| 1787918722 | 31.11° C | 44% | 1007.2 hPa | 0 mm | - | 665 W/m² | - |
| 1787918122 | 31.11° C | 44% | 1007 hPa | 0 mm | - | 754 W/m² | - |
| 1787917295 | 31.11° C | 46% | 1007.2 hPa | 0 mm | - | 742 W/m² | - |
| 1787916923 | 30.56° C | 44% | 1007.6 hPa | 0 mm | - | 492 W/m² | - |
| 1787916323 | 30.56° C | 46% | 1007.6 hPa | 0 mm | - | 639 W/m² | - |
| 1787915495 | 30.56° C | 44% | 1007.4 hPa | 0 mm | - | 652 W/m² | - |
| 1787915123 | 30.56° C | 45% | 1007.1 hPa | 0 mm | - | 710 W/m² | - |
| 1787914523 | 30° C | 48% | 1007.3 hPa | 0 mm | - | 703 W/m² | - |
| 1787913696 | 30° C | 48% | 1007.3 hPa | 0 mm | - | 697 W/m² | - |
| 1787913323 | 29.44° C | 48% | 1007.4 hPa | 0 mm | - | 691 W/m² | - |
| 1787912723 | 29.44° C | 49% | 1007.4 hPa | 0 mm | - | 691 W/m² | - |
| 1787911896 | 29.44° C | 48% | 1007.1 hPa | 0 mm | - | 678 W/m² | - |
| 1787911523 | 28.89° C | 50% | 1007.4 hPa | 0 mm | - | 671 W/m² | - |
| 1787910922 | 28.33° C | 51% | 1007.6 hPa | 0 mm | - | 665 W/m² | - |
| 1787910096 | 28.33° C | 51% | 1007.6 hPa | 0 mm | - | 601 W/m² | - |
| 1787909722 | 28.33° C | 50% | 1008 hPa | 0 mm | - | 627 W/m² | - |
| 1787909123 | 28.33° C | 51% | 1008.4 hPa | 0 mm | - | 614 W/m² | - |
| 1787908295 | 27.78° C | 52% | 1008.7 hPa | 0 mm | - | 601 W/m² | - |
* Rain latest hour (hover to see other rain measurements)
** Current wind speed in m/s (hover to see current wind gust speed)